createdAt,value
2018-08-23T00:00:08.459Z,23.44
2018-08-23T00:00:48.859Z,23.38
2018-08-23T00:01:29.212Z,23.29
2018-08-23T00:02:09.635Z,23.44
2018-08-23T00:02:50.085Z,23.41
2018-08-23T00:03:30.500Z,23.37
2018-08-23T00:04:10.813Z,23.44
2018-08-23T00:04:51.240Z,23.42
2018-08-23T00:05:31.645Z,23.31
2018-08-23T00:06:12.091Z,23.34
2018-08-23T00:06:52.441Z,23.35
2018-08-23T00:07:32.876Z,23.34
2018-08-23T00:08:13.285Z,23.19
2018-08-23T00:08:53.744Z,23.31
2018-08-23T00:09:34.094Z,23.23
2018-08-23T00:10:14.519Z,23.14
2018-08-23T00:10:54.932Z,23.21
2018-08-23T00:11:35.321Z,23.16
2018-08-23T00:12:15.714Z,23.07
2018-08-23T00:12:56.158Z,23.06
2018-08-23T00:13:36.539Z,23.07
2018-08-23T00:14:16.921Z,23.04
2018-08-23T00:14:57.359Z,23.04
2018-08-23T00:15:37.740Z,23.12
2018-08-23T00:16:18.172Z,22.97
2018-08-23T00:16:58.593Z,23.03
2018-08-23T00:17:38.939Z,22.94
2018-08-23T00:18:19.328Z,23.06
2018-08-23T00:18:59.705Z,23.07
2018-08-23T00:19:40.091Z,23.11
2018-08-23T00:20:20.493Z,23.07
2018-08-23T00:21:00.902Z,23.07
2018-08-23T00:21:41.268Z,23
2018-08-23T00:22:21.677Z,23.07
2018-08-23T00:23:02.065Z,22.99
2018-08-23T00:23:42.471Z,22.97
2018-08-23T00:24:22.901Z,22.94
2018-08-23T00:25:03.258Z,22.93
2018-08-23T00:25:43.707Z,22.89
2018-08-23T00:26:24.095Z,22.94
2018-08-23T00:27:04.560Z,22.88
2018-08-23T00:27:44.896Z,22.85
2018-08-23T00:28:25.271Z,22.75
2018-08-23T00:29:05.676Z,22.79
2018-08-23T00:29:46.068Z,22.66
2018-08-23T00:30:26.428Z,22.75
2018-08-23T00:31:06.859Z,22.67
2018-08-23T00:31:47.247Z,22.59
2018-08-23T00:32:27.623Z,22.66
2018-08-23T00:33:08.047Z,22.63
2018-08-23T00:33:48.473Z,22.54
2018-08-23T00:34:28.862Z,22.52
2018-08-23T00:35:09.270Z,22.48
2018-08-23T00:35:49.673Z,22.48
2018-08-23T00:36:30.071Z,22.45
2018-08-23T00:37:10.506Z,22.42
2018-08-23T00:37:50.931Z,22.42
2018-08-23T00:38:31.362Z,22.42
2018-08-23T00:39:11.779Z,22.38
2018-08-23T00:39:52.191Z,22.35
2018-08-23T00:41:50.110Z,22.36
2018-08-23T00:42:30.196Z,22.31
2018-08-23T00:43:10.630Z,22.21
2018-08-23T00:44:59.036Z,22.23
2018-08-23T00:45:39.589Z,22.23
2018-08-23T00:46:19.986Z,22.15
2018-08-23T00:47:00.339Z,22.24
2018-08-23T00:47:40.758Z,22.19
2018-08-23T00:48:21.182Z,22.2
2018-08-23T00:49:01.579Z,22.14
2018-08-23T00:49:42.011Z,22.09
2018-08-23T00:50:22.383Z,22.06
2018-08-23T00:51:02.768Z,22.12
2018-08-23T00:51:43.158Z,22.12
2018-08-23T00:52:23.632Z,22.11
2018-08-23T00:53:04.020Z,22.09
2018-08-23T00:53:44.414Z,22.15
2018-08-23T00:54:24.826Z,22.09
2018-08-23T00:55:05.174Z,22.06
2018-08-23T00:55:45.535Z,22.04
2018-08-23T00:56:25.954Z,21.93
2018-08-23T00:57:06.378Z,21.99
2018-08-23T00:57:46.768Z,21.93
2018-08-23T00:58:27.120Z,21.99
2018-08-23T00:59:07.512Z,22.01
2018-08-23T00:59:47.910Z,21.96
2018-08-23T01:00:28.317Z,22.01
2018-08-23T01:01:08.708Z,22.02
2018-08-23T01:01:49.106Z,21.94
2018-08-23T01:02:29.538Z,21.86
2018-08-23T01:03:09.938Z,21.9
2018-08-23T01:03:50.297Z,21.85
2018-08-23T01:04:30.735Z,21.86
2018-08-23T01:05:11.151Z,21.86
2018-08-23T01:05:51.484Z,21.89
2018-08-23T01:06:31.887Z,21.79
2018-08-23T01:07:12.381Z,21.9
2018-08-23T01:07:52.690Z,21.82
2018-08-23T01:08:33.172Z,21.74
2018-08-23T01:09:13.518Z,21.74
2018-08-23T01:09:53.962Z,21.75
2018-08-23T01:10:34.330Z,21.74
2018-08-23T01:11:14.759Z,21.81
2018-08-23T01:11:55.187Z,21.73
2018-08-23T01:12:35.609Z,21.74
2018-08-23T01:13:15.992Z,21.82
2018-08-23T01:13:56.457Z,21.7
2018-08-23T01:14:36.850Z,21.7
2018-08-23T01:15:17.249Z,21.79
2018-08-23T01:15:57.653Z,21.82
2018-08-23T01:16:38.043Z,21.81
2018-08-23T01:17:18.462Z,21.82
2018-08-23T01:17:58.842Z,21.86
2018-08-23T01:18:39.249Z,21.81
2018-08-23T01:19:19.648Z,21.83
2018-08-23T01:20:00.009Z,21.71
2018-08-23T01:20:40.393Z,21.79
2018-08-23T01:21:20.773Z,21.79
2018-08-23T01:22:01.152Z,21.79
2018-08-23T01:22:41.567Z,21.68
2018-08-23T01:23:21.990Z,21.74
2018-08-23T01:24:02.397Z,21.67
2018-08-23T01:24:42.801Z,21.56
2018-08-23T01:25:23.155Z,21.73
2018-08-23T01:26:03.565Z,21.61
2018-08-23T01:26:44.003Z,21.67
2018-08-23T01:27:24.427Z,21.74
2018-08-23T01:28:04.743Z,21.63
2018-08-23T01:28:45.183Z,21.58
2018-08-23T01:29:25.533Z,21.67
2018-08-23T01:30:05.938Z,21.67
2018-08-23T01:30:46.333Z,21.58
2018-08-23T01:31:26.691Z,21.66
2018-08-23T01:32:07.144Z,21.66
2018-08-23T01:32:47.509Z,21.64
2018-08-23T01:33:27.895Z,21.59
2018-08-23T01:34:08.323Z,21.63
2018-08-23T01:34:48.688Z,21.51
2018-08-23T01:35:29.119Z,21.56
2018-08-23T01:36:09.517Z,21.56
2018-08-23T01:36:49.923Z,21.53
2018-08-23T01:37:30.314Z,21.46
2018-08-23T01:38:10.707Z,21.45
2018-08-23T01:38:51.073Z,21.49
2018-08-23T01:39:31.493Z,21.52
2018-08-23T01:40:11.907Z,21.51
2018-08-23T01:40:52.324Z,21.52
2018-08-23T01:41:32.669Z,21.52
2018-08-23T01:42:13.072Z,21.52
2018-08-23T01:42:53.488Z,21.58
2018-08-23T01:43:33.901Z,21.51
2018-08-23T01:44:14.243Z,21.55
2018-08-23T01:44:54.702Z,21.52
2018-08-23T01:45:35.148Z,21.53
2018-08-23T01:46:15.481Z,21.51
2018-08-23T01:46:55.924Z,21.48
2018-08-23T01:47:36.369Z,21.46
2018-08-23T01:48:16.780Z,21.43
2018-08-23T01:48:57.210Z,21.46
2018-08-23T01:49:37.586Z,21.43
2018-08-23T01:50:17.969Z,21.45
2018-08-23T01:50:58.389Z,21.36
2018-08-23T01:51:38.776Z,21.38
2018-08-23T01:52:19.233Z,21.36
2018-08-23T01:52:59.597Z,21.27
2018-08-23T01:53:40.004Z,21.26
2018-08-23T01:54:20.379Z,21.34
2018-08-23T01:55:00.780Z,21.34
2018-08-23T01:55:41.264Z,21.27
2018-08-23T01:56:21.622Z,21.24
2018-08-23T01:57:02.007Z,21.27
2018-08-23T01:57:42.377Z,21.26
2018-08-23T01:58:22.829Z,21.26
2018-08-23T01:59:03.166Z,21.24
2018-08-23T01:59:43.578Z,21.16
2018-08-23T02:00:23.970Z,21.13
2018-08-23T02:01:04.378Z,21.16
2018-08-23T02:01:44.820Z,21.18
2018-08-23T02:02:25.137Z,21.13
2018-08-23T02:03:05.601Z,21.12
2018-08-23T02:03:46.017Z,21.18
2018-08-23T02:04:26.431Z,21.12
2018-08-23T02:05:06.821Z,20.98
2018-08-23T02:05:47.249Z,21.01
2018-08-23T02:06:27.677Z,20.98
2018-08-23T02:07:08.055Z,21.03
2018-08-23T02:07:48.391Z,21.05
2018-08-23T02:08:28.858Z,21.06
2018-08-23T02:09:09.235Z,20.98
2018-08-23T02:09:49.641Z,20.98
2018-08-23T02:10:30.020Z,20.96
2018-08-23T02:11:10.416Z,20.98
2018-08-23T02:11:50.805Z,20.88
2018-08-23T02:12:31.231Z,20.94
2018-08-23T02:13:11.618Z,20.91
2018-08-23T02:13:51.981Z,20.9
2018-08-23T02:14:32.401Z,20.94
2018-08-23T02:15:12.806Z,20.87
2018-08-23T02:15:53.252Z,20.82
2018-08-23T02:16:33.654Z,20.81
2018-08-23T02:17:14.112Z,20.78
2018-08-23T02:17:54.494Z,20.85
2018-08-23T02:18:34.898Z,20.78
2018-08-23T02:19:15.311Z,20.76
2018-08-23T02:19:55.728Z,20.81
2018-08-23T02:20:36.167Z,20.69
2018-08-23T02:21:16.559Z,20.68
2018-08-23T02:21:56.975Z,20.64
2018-08-23T02:22:37.370Z,20.71
2018-08-23T02:23:17.769Z,20.63
2018-08-23T02:23:58.140Z,20.68
2018-08-23T02:24:38.525Z,20.64
2018-08-23T02:25:19.019Z,20.64
2018-08-23T02:25:59.405Z,20.57
2018-08-23T02:26:39.760Z,20.6
2018-08-23T02:27:20.171Z,20.63
2018-08-23T02:28:00.649Z,20.64
2018-08-23T02:28:41.007Z,20.61
2018-08-23T02:29:21.429Z,20.64
2018-08-23T02:30:01.766Z,20.58
2018-08-23T02:30:42.239Z,20.64
2018-08-23T02:31:22.614Z,20.57
2018-08-23T02:32:03.020Z,20.53
2018-08-23T02:32:43.403Z,20.48
2018-08-23T02:33:23.857Z,20.51
2018-08-23T02:34:04.238Z,20.58
2018-08-23T02:34:44.699Z,20.48
2018-08-23T02:35:25.047Z,20.5
2018-08-23T02:36:05.456Z,20.53
2018-08-23T02:36:45.877Z,20.54
2018-08-23T02:37:26.322Z,20.46
2018-08-23T02:38:06.785Z,20.48
2018-08-23T02:38:47.094Z,20.48
2018-08-23T02:39:27.463Z,20.46
2018-08-23T02:40:07.930Z,20.57
2018-08-23T02:40:48.331Z,20.48
2018-08-23T02:41:28.727Z,20.48
2018-08-23T02:42:09.136Z,20.56
2018-08-23T02:42:49.525Z,20.46
2018-08-23T02:43:29.985Z,20.44
2018-08-23T02:44:10.319Z,20.53
2018-08-23T02:44:50.681Z,20.5
2018-08-23T02:45:31.110Z,20.44
2018-08-23T02:46:11.476Z,20.46
2018-08-23T02:46:51.888Z,20.48
2018-08-23T02:47:32.313Z,20.42
2018-08-23T02:48:12.722Z,20.42
2018-08-23T02:48:53.120Z,20.41
2018-08-23T02:49:33.515Z,20.33
2018-08-23T02:50:13.899Z,20.33
2018-08-23T02:50:54.321Z,20.3
2018-08-23T02:51:34.765Z,20.35
2018-08-23T02:52:15.149Z,20.3
2018-08-23T02:52:55.538Z,20.4
2018-08-23T02:53:35.961Z,20.37
2018-08-23T02:54:16.354Z,20.41
2018-08-23T02:54:56.731Z,20.44
2018-08-23T02:55:37.108Z,20.44
2018-08-23T02:56:17.529Z,20.41
2018-08-23T02:56:57.956Z,20.38
2018-08-23T02:57:38.367Z,20.38
2018-08-23T02:58:18.732Z,20.41
2018-08-23T02:58:59.155Z,20.37
2018-08-23T02:59:39.552Z,20.31
2018-08-23T03:00:19.948Z,20.34
2018-08-23T03:01:00.312Z,20.37
2018-08-23T03:01:40.685Z,20.25
2018-08-23T03:02:21.130Z,20.31
2018-08-23T03:03:01.564Z,20.27
2018-08-23T03:03:41.966Z,20.26
2018-08-23T03:04:22.336Z,20.22
2018-08-23T03:05:02.716Z,20.22
2018-08-23T03:05:43.168Z,20.17
2018-08-23T03:06:23.560Z,20.16
2018-08-23T03:07:04.042Z,20.16
2018-08-23T03:07:44.384Z,20.19
2018-08-23T03:08:24.763Z,20.19
2018-08-23T03:09:05.179Z,20.26
2018-08-23T03:09:45.591Z,20.2
2018-08-23T03:10:26.025Z,20.3
2018-08-23T03:11:06.425Z,20.22
2018-08-23T03:11:46.863Z,20.33
2018-08-23T03:12:27.245Z,20.34
2018-08-23T03:13:07.608Z,20.33
2018-08-23T03:13:48.032Z,20.3
2018-08-23T03:14:28.416Z,20.33
2018-08-23T03:15:08.901Z,20.34
2018-08-23T03:15:49.321Z,20.33
2018-08-23T03:16:29.698Z,20.31
2018-08-23T03:17:10.062Z,20.33
2018-08-23T03:17:50.484Z,20.27
2018-08-23T03:18:30.857Z,20.33
2018-08-23T03:19:11.214Z,20.15
2018-08-23T03:19:51.583Z,20.1
2018-08-23T03:20:32.039Z,20.16
2018-08-23T03:21:12.418Z,20.13
2018-08-23T03:21:52.841Z,20.12
2018-08-23T03:22:33.232Z,20.13
2018-08-23T03:23:13.657Z,20.13
2018-08-23T03:23:54.045Z,20.08
2018-08-23T03:24:34.462Z,20.12
2018-08-23T03:25:14.869Z,20.1
2018-08-23T03:25:55.218Z,20.07
2018-08-23T03:26:35.696Z,20.07
2018-08-23T03:27:16.060Z,20.04
2018-08-23T03:27:56.505Z,20.08
2018-08-23T03:28:36.831Z,20.12
2018-08-23T03:29:17.235Z,20.07
2018-08-23T03:29:57.670Z,20.05
2018-08-23T03:30:38.112Z,20.1
2018-08-23T03:31:18.491Z,20.04
2018-08-23T03:31:58.842Z,20.01
2018-08-23T03:32:39.299Z,20.05
2018-08-23T03:33:19.690Z,20.08
2018-08-23T03:34:00.063Z,20.02
2018-08-23T03:34:40.438Z,20.04
2018-08-23T03:35:20.884Z,20.04
2018-08-23T03:36:01.237Z,19.92
2018-08-23T03:36:41.702Z,19.87
2018-08-23T03:37:22.101Z,19.95
2018-08-23T03:38:02.526Z,19.92
2018-08-23T03:38:42.925Z,19.9
2018-08-23T03:39:23.332Z,19.78
2018-08-23T03:40:03.720Z,19.79
2018-08-23T03:40:44.140Z,19.89
2018-08-23T03:41:24.553Z,19.83
2018-08-23T03:42:05.079Z,19.89
2018-08-23T03:42:45.499Z,19.89
2018-08-23T03:43:25.862Z,19.9
2018-08-23T03:44:06.320Z,19.85
2018-08-23T03:44:46.693Z,19.92
2018-08-23T03:45:27.090Z,19.89
2018-08-23T03:46:07.508Z,19.98
2018-08-23T03:46:47.891Z,19.89
2018-08-23T03:47:28.248Z,19.85
2018-08-23T03:48:08.710Z,19.83
2018-08-23T03:48:49.134Z,19.9
2018-08-23T03:49:29.461Z,19.9
2018-08-23T03:50:09.922Z,19.78
2018-08-23T03:50:50.356Z,19.72
2018-08-23T03:51:30.760Z,19.75
2018-08-23T03:52:11.171Z,19.75
2018-08-23T03:52:51.494Z,19.83
2018-08-23T03:53:31.920Z,19.67
2018-08-23T03:54:12.323Z,19.7
2018-08-23T03:54:52.752Z,19.8
2018-08-23T03:55:33.177Z,19.78
2018-08-23T03:56:13.551Z,19.65
2018-08-23T03:56:53.975Z,19.79
2018-08-23T03:57:34.343Z,19.68
2018-08-23T03:58:14.786Z,19.67
2018-08-23T03:58:55.157Z,19.64
2018-08-23T03:59:35.561Z,19.57
2018-08-23T04:00:15.902Z,19.55
2018-08-23T04:00:56.335Z,19.42
2018-08-23T04:01:36.768Z,19.47
2018-08-23T04:02:17.096Z,19.46
2018-08-23T04:02:57.567Z,19.5
2018-08-23T04:03:37.940Z,19.47
2018-08-23T04:04:18.395Z,19.47
2018-08-23T04:04:58.776Z,19.5
2018-08-23T04:05:39.196Z,19.46
2018-08-23T04:06:19.598Z,19.53
2018-08-23T04:06:59.974Z,19.49
2018-08-23T04:07:40.343Z,19.53
2018-08-23T04:08:20.809Z,19.52
2018-08-23T04:09:01.207Z,19.49
2018-08-23T04:09:41.604Z,19.45
2018-08-23T04:10:22.023Z,19.57
2018-08-23T04:11:02.386Z,19.47
2018-08-23T04:11:42.784Z,19.58
2018-08-23T04:12:23.179Z,19.52
2018-08-23T04:13:03.572Z,19.52
2018-08-23T04:13:43.977Z,19.47
2018-08-23T04:14:24.419Z,19.57
2018-08-23T04:15:04.802Z,19.43
2018-08-23T04:15:45.189Z,19.5
2018-08-23T04:16:25.757Z,19.53
2018-08-23T04:17:06.096Z,19.46
2018-08-23T04:17:46.538Z,19.46
2018-08-23T04:18:27.060Z,19.47
2018-08-23T04:19:07.431Z,19.39
2018-08-23T04:19:47.881Z,19.49
2018-08-23T04:20:28.304Z,19.38
2018-08-23T04:21:08.652Z,19.49
2018-08-23T04:21:49.082Z,19.47
2018-08-23T04:22:29.477Z,19.39
2018-08-23T04:23:09.895Z,19.39
2018-08-23T04:23:50.261Z,19.3
2018-08-23T04:24:30.731Z,19.31
2018-08-23T04:25:11.096Z,19.23
2018-08-23T04:25:51.500Z,19.28
2018-08-23T04:26:31.884Z,19.25
2018-08-23T04:27:12.302Z,19.27
2018-08-23T04:27:52.656Z,19.24
2018-08-23T04:28:33.129Z,19.25
2018-08-23T05:06:25.900Z,17.8
2018-08-23T05:18:44.886Z,18.46
2018-08-23T05:20:36.651Z,18.64
2018-08-23T05:23:00.527Z,18.93
2018-08-23T05:23:53.023Z,19.02
2018-08-23T05:24:45.549Z,19.16
2018-08-23T05:25:38.048Z,19.31
2018-08-23T05:26:30.349Z,19.38
2018-08-23T05:27:22.731Z,19.55
2018-08-23T05:28:15.717Z,19.6
2018-08-23T05:29:08.642Z,19.79
2018-08-23T05:30:01.761Z,19.83
2018-08-23T05:31:06.490Z,20.05
2018-08-23T05:31:57.712Z,20.1
2018-08-23T05:32:49.222Z,20.34
2018-08-23T05:34:30.880Z,20.58
2018-08-23T05:36:13.077Z,20.82
2018-08-23T05:37:05.660Z,20.9
2018-08-23T05:37:58.275Z,21.05
2018-08-23T05:38:50.377Z,21.09
2018-08-23T05:39:42.453Z,21.19
2018-08-23T05:40:34.019Z,21.3
2018-08-23T05:41:18.717Z,21.26
2018-08-23T05:41:59.223Z,21.38
2018-08-23T05:42:39.651Z,21.46
2018-08-23T05:43:20.107Z,21.58
2018-08-23T05:44:00.480Z,21.64
2018-08-23T05:44:40.969Z,21.77
2018-08-23T05:45:21.967Z,21.77
2018-08-23T05:46:02.389Z,21.85
2018-08-23T05:46:42.742Z,21.96
2018-08-23T05:47:23.178Z,22.04
2018-08-23T05:48:03.591Z,22.04
2018-08-23T05:48:44.091Z,22.08
2018-08-23T05:49:24.455Z,22.11
2018-08-23T05:50:05.019Z,22.23
2018-08-23T05:50:45.391Z,22.21
2018-08-23T05:51:26.019Z,22.33
2018-08-23T05:52:06.523Z,22.45
2018-08-23T05:52:47.622Z,22.46
2018-08-23T05:53:27.659Z,22.54
2018-08-23T05:54:08.130Z,22.59
2018-08-23T05:54:48.568Z,22.61
2018-08-23T05:55:29.013Z,22.6
2018-08-23T05:56:09.507Z,22.78
2018-08-23T05:56:50.062Z,22.85
2018-08-23T05:57:30.358Z,22.88
2018-08-23T05:58:10.831Z,23.06
2018-08-23T05:58:51.267Z,23.09
2018-08-23T05:59:31.757Z,23.03
2018-08-23T06:00:26.912Z,23.21
2018-08-23T06:01:07.339Z,23.31
2018-08-23T06:01:47.895Z,23.37
2018-08-23T06:02:28.626Z,23.44
2018-08-23T06:03:09.741Z,23.54
2018-08-23T06:03:50.308Z,23.69
2018-08-23T06:04:30.807Z,23.78
2018-08-23T06:05:11.522Z,23.84
2018-08-23T06:05:52.255Z,23.94
2018-08-23T06:06:32.733Z,24.06
2018-08-23T06:07:13.869Z,24.12
2018-08-23T06:07:55.843Z,24.11
2018-08-23T06:08:36.232Z,24.15
2018-08-23T06:09:17.752Z,24.27
2018-08-23T06:09:58.870Z,24.39
2018-08-23T06:10:40.614Z,24.39
2018-08-23T06:11:21.009Z,24.45
2018-08-23T06:12:01.321Z,24.48
2018-08-23T06:12:42.120Z,24.56
2018-08-23T06:13:23.617Z,24.68
2018-08-23T06:14:04.371Z,24.89
2018-08-23T06:14:45.630Z,24.92
2018-08-23T06:15:25.989Z,25.22
2018-08-23T06:16:06.422Z,25.42
2018-08-23T06:16:47.078Z,25.51
2018-08-23T06:17:28.691Z,25.61
2018-08-23T06:18:09.631Z,25.69
2018-08-23T06:18:50.651Z,25.9
2018-08-23T06:19:33.607Z,26.09
2018-08-23T06:20:13.607Z,26.2
2018-08-23T06:20:54.266Z,26.32
2018-08-23T06:21:34.996Z,26.53
2018-08-23T06:22:15.744Z,26.56
2018-08-23T06:22:57.109Z,26.53
2018-08-23T06:23:38.606Z,26.57
2018-08-23T06:24:18.582Z,26.69
2018-08-23T06:24:59.057Z,26.79
2018-08-23T06:25:39.463Z,26.86
2018-08-23T06:26:19.941Z,26.87
2018-08-23T06:27:00.371Z,27.01
2018-08-23T06:27:40.814Z,27.05
2018-08-23T06:28:21.159Z,27.21
2018-08-23T06:29:01.585Z,27.24
2018-08-23T06:29:42.069Z,27.27
2018-08-23T06:30:22.475Z,27.43
2018-08-23T06:31:02.906Z,27.45
2018-08-23T06:31:43.492Z,27.68
2018-08-23T06:32:23.986Z,27.68
2018-08-23T06:33:04.492Z,27.87
2018-08-23T06:33:44.827Z,27.87
2018-08-23T06:34:25.306Z,27.96
2018-08-23T06:35:05.818Z,28.03
2018-08-23T06:35:46.321Z,27.93
2018-08-23T06:36:26.668Z,27.91
2018-08-23T06:37:07.097Z,28.01
2018-08-23T06:37:47.665Z,28.05
2018-08-23T06:38:28.123Z,28.02
2018-08-23T06:39:08.587Z,28.2
2018-08-23T06:39:48.969Z,28.25
2018-08-23T06:40:29.408Z,28.32
2018-08-23T06:41:09.925Z,28.38
2018-08-23T06:41:50.226Z,28.52
2018-08-23T06:42:30.632Z,28.73
2018-08-23T06:43:11.143Z,28.8
2018-08-23T06:43:51.494Z,28.97
2018-08-23T06:44:31.975Z,29.1
2018-08-23T06:45:12.352Z,29.18
2018-08-23T06:45:52.795Z,29.2
2018-08-23T06:46:33.204Z,29.44
2018-08-23T06:47:13.808Z,29.47
2018-08-23T06:47:54.223Z,29.51
2018-08-23T06:48:34.665Z,29.55
2018-08-23T06:49:15.054Z,29.62
2018-08-23T06:49:55.702Z,29.73
2018-08-23T06:50:36.120Z,29.81
2018-08-23T06:51:16.725Z,29.86
2018-08-23T06:51:57.088Z,29.89
2018-08-23T06:52:47.822Z,29.91
2018-08-23T06:53:42.951Z,29.89
2018-08-23T06:54:26.373Z,29.76
2018-08-23T06:55:07.586Z,29.82
2018-08-23T06:55:48.452Z,29.86
2018-08-23T06:56:28.922Z,29.89
2018-08-23T06:57:09.444Z,29.85
2018-08-23T06:57:49.835Z,29.86
2018-08-23T06:58:30.322Z,29.86
2018-08-23T06:59:10.843Z,29.81
2018-08-23T06:59:51.347Z,29.82
2018-08-23T07:00:39.865Z,29.92
2018-08-23T07:01:20.578Z,30.06
2018-08-23T07:02:01.123Z,30.13
2018-08-23T07:02:41.535Z,30.28
2018-08-23T07:03:21.969Z,30.42
2018-08-23T07:04:02.440Z,30.45
2018-08-23T07:04:42.772Z,30.46
2018-08-23T07:05:23.306Z,30.53
2018-08-23T07:06:03.625Z,30.6
2018-08-23T07:06:44.210Z,30.64
2018-08-23T07:07:24.621Z,30.73
2018-08-23T07:08:05.011Z,30.82
2018-08-23T07:08:45.371Z,30.88
2018-08-23T07:09:25.852Z,30.98
2018-08-23T07:10:06.270Z,31.01
2018-08-23T07:12:23.191Z,31.31
2018-08-23T07:13:15.636Z,31.54
2018-08-23T07:14:08.239Z,31.57
2018-08-23T07:15:01.059Z,31.64
2018-08-23T07:15:53.546Z,31.74
2018-08-23T07:16:47.038Z,31.82
2018-08-23T07:17:40.465Z,31.74
2018-08-23T07:18:34.863Z,31.75
2018-08-23T07:19:28.168Z,31.6
2018-08-23T07:20:20.140Z,31.42
2018-08-23T07:21:14.006Z,31.41
2018-08-23T07:22:00.696Z,31.28
2018-08-23T07:23:54.630Z,31.35
2018-08-23T07:26:03.016Z,31.2
2018-08-23T07:26:54.901Z,31.38
2018-08-23T07:27:47.241Z,31.46
2018-08-23T07:28:40.059Z,31.57
2018-08-23T07:29:31.927Z,31.69
2018-08-23T07:30:14.606Z,31.74
2018-08-23T07:30:55.106Z,31.85
2018-08-23T07:33:28.616Z,31.76
2018-08-23T07:34:22.617Z,31.53
2018-08-23T07:35:15.389Z,31.65
2018-08-23T07:36:07.957Z,31.82
2018-08-23T07:38:00.818Z,31.78
2018-08-23T07:38:54.347Z,31.88
2018-08-23T07:39:46.878Z,31.78
2018-08-23T07:40:39.688Z,31.6
2018-08-23T07:41:28.251Z,31.54
2018-08-23T07:42:08.689Z,31.54
2018-08-23T07:42:49.089Z,31.42
2018-08-23T07:43:29.656Z,31.37
2018-08-23T07:44:10.027Z,31.34
2018-08-23T07:44:50.533Z,31.34
2018-08-23T07:45:31.118Z,31.31
2018-08-23T07:46:12.378Z,31.41
2018-08-23T07:46:52.386Z,31.37
2018-08-23T07:47:32.814Z,31.47
2018-08-23T07:48:13.370Z,31.52
2018-08-23T07:48:53.965Z,31.59
2018-08-23T07:49:34.444Z,31.6
2018-08-23T07:50:15.021Z,31.62
2018-08-23T07:50:55.431Z,31.56
2018-08-23T07:51:36.048Z,31.37
2018-08-23T07:52:19.937Z,31.3
2018-08-23T07:53:00.562Z,31.38
2018-08-23T07:53:41.006Z,31.47
2018-08-23T07:54:21.416Z,31.68
2018-08-23T07:55:02.251Z,31.74
2018-08-23T07:55:42.310Z,31.82
2018-08-23T07:56:22.857Z,31.91
2018-08-23T07:57:03.238Z,31.95
2018-08-23T07:57:44.911Z,32.13
2018-08-23T07:58:24.714Z,32.32
2018-08-23T07:59:05.072Z,32.29
2018-08-23T07:59:45.521Z,32.32
2018-08-23T08:00:25.997Z,32.41
2018-08-23T08:01:06.642Z,32.34
2018-08-23T08:01:48.491Z,32.34
2018-08-23T08:02:29.432Z,32.25
2018-08-23T08:03:10.391Z,32.22
2018-08-23T08:03:50.816Z,32.21
2018-08-23T08:04:31.122Z,32.17
2018-08-23T08:05:11.496Z,32.25
2018-08-23T08:05:52.929Z,32.1
2018-08-23T08:06:32.626Z,32.16
2018-08-23T08:07:12.993Z,32.24
2018-08-23T08:07:53.449Z,32.35
2018-08-23T08:08:33.846Z,32.44
2018-08-23T08:09:14.285Z,32.62
2018-08-23T08:09:55.031Z,32.83
2018-08-23T08:10:35.528Z,32.9
2018-08-23T08:11:16.126Z,32.99
2018-08-23T08:11:56.562Z,33.18
2018-08-23T08:12:36.984Z,33.43
2018-08-23T08:13:17.590Z,33.57
2018-08-23T08:13:57.978Z,33.59
2018-08-23T08:14:38.424Z,33.71
2018-08-23T08:15:19.044Z,33.97
2018-08-23T08:15:59.873Z,33.99
2018-08-23T08:16:40.240Z,34.11
2018-08-23T08:17:20.744Z,34.21
2018-08-23T08:18:01.434Z,34.18
2018-08-23T08:18:52.819Z,34.34
2018-08-23T08:19:34.590Z,34.4
2018-08-23T08:20:14.922Z,34.53
2018-08-23T08:20:55.504Z,34.71
2018-08-23T08:21:35.818Z,34.84
2018-08-23T08:22:16.228Z,34.81
2018-08-23T08:22:56.671Z,34.81
2018-08-23T08:23:37.092Z,34.76
2018-08-23T08:25:46.453Z,34.98
2018-08-23T08:26:39.797Z,35.02
2018-08-23T08:27:32.455Z,35.2
2018-08-23T08:28:26.158Z,35.02
2018-08-23T08:29:18.151Z,34.95
2018-08-23T08:30:11.486Z,34.83
2018-08-23T08:31:05.759Z,34.94
2018-08-23T08:32:30.659Z,34.9
2018-08-23T08:33:43.399Z,34.88
2018-08-23T08:36:11.996Z,34.86
2018-08-23T08:37:04.531Z,34.86
2018-08-23T08:37:57.258Z,34.94
2018-08-23T08:38:51.533Z,35.06
2018-08-23T08:39:45.067Z,34.94
2018-08-23T08:40:37.179Z,34.95
2018-08-23T08:41:24.626Z,34.69
2018-08-23T08:42:07.123Z,34.63
2018-08-23T08:42:47.485Z,34.75
2018-08-23T08:43:27.846Z,34.69
2018-08-23T08:44:08.333Z,34.71
2018-08-23T08:44:48.748Z,34.76
2018-08-23T08:45:31.167Z,34.78
2018-08-23T08:46:13.143Z,34.94
2018-08-23T08:46:59.299Z,35.03
2018-08-23T08:47:39.549Z,35.1
2018-08-23T08:48:19.911Z,35.13
2018-08-23T08:49:00.690Z,35.31
2018-08-23T08:49:42.557Z,35.29
2018-08-23T08:50:23.523Z,35.31
2018-08-23T08:51:03.684Z,35.27
2018-08-23T08:51:44.190Z,35.36
2018-08-23T08:52:26.899Z,35.36
2018-08-23T08:55:17.626Z,35.07
2018-08-23T08:55:58.209Z,35.17
2018-08-23T08:58:16.816Z,35.44
2018-08-23T08:59:30.563Z,35.34
2018-08-23T09:00:44.677Z,35.42
2018-08-23T09:02:05.359Z,35.46
2018-08-23T09:03:04.083Z,35.61
2018-08-23T09:04:02.654Z,35.58
2018-08-23T09:08:53.656Z,35.96
2018-08-23T09:09:56.805Z,36.02
2018-08-23T09:10:59.058Z,36
2018-08-23T09:12:58.564Z,35.99
2018-08-23T09:14:39.976Z,35.78
2018-08-23T09:15:45.693Z,35.83
2018-08-23T09:16:47.314Z,35.95
2018-08-23T09:17:51.257Z,36.13
2018-08-23T09:18:45.465Z,36.13
2018-08-23T09:19:43.449Z,36.3
2018-08-23T09:20:41.349Z,36.28
2018-08-23T09:21:40.167Z,36.5
2018-08-23T09:22:45.506Z,36.31
2018-08-23T09:23:51.041Z,36.23
2018-08-23T09:24:53.607Z,36.22
2018-08-23T09:25:56.655Z,36.38
2018-08-23T09:26:59.104Z,36.46
2018-08-23T09:40:41.977Z,37.47
2018-08-23T09:41:58.057Z,37.2
2018-08-23T09:42:56.866Z,37.06
2018-08-23T09:44:10.680Z,36.99
2018-08-23T09:45:28.141Z,36.94
2018-08-23T09:48:07.421Z,36.96
2018-08-23T09:50:56.691Z,37.4
2018-08-23T09:54:04.689Z,37.6
2018-08-23T09:55:37.789Z,37.95
2018-08-23T09:56:19.916Z,38.06
2018-08-23T09:57:00.403Z,38.03
2018-08-23T09:57:41.061Z,38.04
2018-08-23T09:58:21.724Z,38.07
2018-08-23T09:59:02.515Z,38
2018-08-23T09:59:43.938Z,37.78
2018-08-23T10:00:24.615Z,37.72
2018-08-23T10:01:05.245Z,37.7
2018-08-23T10:01:50.146Z,37.56
2018-08-23T10:02:30.657Z,37.46
2018-08-23T10:03:14.347Z,37.18
2018-08-23T10:03:58.582Z,37.09
2018-08-23T10:04:39.591Z,37.08
2018-08-23T10:05:20.454Z,37.06
2018-08-23T10:06:00.853Z,37.12
2018-08-23T10:06:41.307Z,37.15
2018-08-23T10:07:21.990Z,37.23
2018-08-23T10:08:02.577Z,37.27
2018-08-23T10:08:44.059Z,37.5
2018-08-23T10:09:26.438Z,37.58
2018-08-23T10:10:12.976Z,37.66
2018-08-23T10:10:54.306Z,37.63
2018-08-23T10:11:39.415Z,37.56
2018-08-23T10:12:22.385Z,37.6
2018-08-23T10:13:04.056Z,37.72
2018-08-23T10:13:44.818Z,37.81
2018-08-23T10:14:25.184Z,37.73
2018-08-23T10:15:06.029Z,37.75
2018-08-23T10:15:46.768Z,37.72
2018-08-23T10:19:34.467Z,37.65
2018-08-23T10:20:32.036Z,37.68
2018-08-23T10:23:01.018Z,36.9
2018-08-23T10:24:03.726Z,36.9
2018-08-23T10:25:07.185Z,36.71
2018-08-23T10:27:48.860Z,36.59
2018-08-23T10:28:32.124Z,36.59
2018-08-23T10:29:13.424Z,36.68
2018-08-23T11:07:14.080Z,36.16
2018-08-23T11:08:00.464Z,36.19
2018-08-23T11:08:41.065Z,36.15
2018-08-23T11:09:21.650Z,36.15
2018-08-23T11:10:02.139Z,36.05
2018-08-23T11:10:42.585Z,35.92
2018-08-23T11:11:22.981Z,35.89
2018-08-23T11:12:04.218Z,35.89
2018-08-23T11:12:44.874Z,35.83
2018-08-23T11:13:25.319Z,35.87
2018-08-23T11:14:06.493Z,35.89
2018-08-23T11:14:47.440Z,35.96
2018-08-23T11:15:27.928Z,35.89
2018-08-23T11:16:08.344Z,36.16
2018-08-23T11:16:48.969Z,36.23
2018-08-23T11:17:30.251Z,36.37
2018-08-23T11:18:11.078Z,36.44
2018-08-23T11:18:51.388Z,36.62
2018-08-23T11:19:34.320Z,36.74
2018-08-23T11:20:15.371Z,36.65
2018-08-23T11:20:55.697Z,36.74
2018-08-23T11:21:36.572Z,36.75
2018-08-23T11:22:17.114Z,36.74
2018-08-23T11:22:58.211Z,36.67
2018-08-23T11:23:38.734Z,36.55
2018-08-23T11:24:19.323Z,36.6
2018-08-23T11:25:00.377Z,36.5
2018-08-23T11:25:41.736Z,36.65
2018-08-23T11:26:22.999Z,36.5
2018-08-23T11:27:04.097Z,36.6
2018-08-23T11:27:45.301Z,36.59
2018-08-23T11:28:26.089Z,36.6
2018-08-23T11:29:06.610Z,36.62